sensor_id;sensor_type;location;lat;lon;timestamp;temperature;humidity
38263;DHT22;24054;50.128;19.730;2023-02-28T16:23:39;22.10;60.20
38263;DHT22;24054;50.128;19.730;2023-02-28T16:26:07;22.40;38.00
38263;DHT22;24054;50.128;19.730;2023-02-28T16:28:36;22.40;38.70
38263;DHT22;24054;50.128;19.730;2023-02-28T16:31:05;22.00;46.20
38263;DHT22;24054;50.128;19.730;2023-02-28T16:33:35;22.40;39.60
38263;DHT22;24054;50.128;19.730;2023-02-28T16:41:01;22.30;58.30
38263;DHT22;24054;50.128;19.730;2023-02-28T16:45:56;22.10;74.70
38263;DHT22;24054;50.128;19.730;2023-02-28T16:48:24;22.40;40.20
38263;DHT22;24054;50.128;19.730;2023-02-28T16:50:51;22.50;47.90
38263;DHT22;24054;50.128;19.730;2023-02-28T16:53:19;22.20;60.50
38263;DHT22;24054;50.128;19.730;2023-02-28T16:55:47;22.30;40.40
38263;DHT22;24054;50.128;19.730;2023-02-28T16:58:17;22.30;39.90
38263;DHT22;24054;50.128;19.730;2023-02-28T17:00:47;22.30;39.30
38263;DHT22;24054;50.128;19.730;2023-02-28T17:03:22;22.20;39.40
38263;DHT22;24054;50.128;19.730;2023-02-28T17:05:50;22.80;46.00
38263;DHT22;24054;50.128;19.730;2023-02-28T17:08:17;22.50;40.30
38263;DHT22;24054;50.128;19.730;2023-02-28T17:10:45;22.20;40.60
38263;DHT22;24054;50.128;19.730;2023-02-28T17:13:13;22.30;41.00
38263;DHT22;24054;50.128;19.730;2023-02-28T17:15:45;22.30;41.20
38263;DHT22;24054;50.128;19.730;2023-02-28T17:18:15;22.30;41.30
38263;DHT22;24054;50.128;19.730;2023-02-28T17:20:44;22.40;41.00
38263;DHT22;24054;50.128;19.730;2023-02-28T17:25:42;22.50;41.30
38263;DHT22;24054;50.128;19.730;2023-02-28T17:28:19;22.50;41.80
38263;DHT22;24054;50.128;19.730;2023-02-28T17:30:48;22.60;41.90
38263;DHT22;24054;50.128;19.730;2023-02-28T17:33:15;22.60;42.00
38263;DHT22;24054;50.128;19.730;2023-02-28T17:35:43;22.70;42.00
38263;DHT22;24054;50.128;19.730;2023-02-28T17:38:15;22.80;42.50
38263;DHT22;24054;50.128;19.730;2023-02-28T17:40:44;22.80;41.90
38263;DHT22;24054;50.128;19.730;2023-02-28T17:43:13;22.90;42.30
38263;DHT22;24054;50.128;19.730;2023-02-28T17:45:41;22.90;42.40
38263;DHT22;24054;50.128;19.730;2023-02-28T17:48:11;23.00;42.50
38263;DHT22;24054;50.128;19.730;2023-02-28T17:50:38;23.10;42.00
38263;DHT22;24054;50.128;19.730;2023-02-28T17:53:06;22.90;48.00
38263;DHT22;24054;50.128;19.730;2023-02-28T17:55:33;22.80;53.30
38263;DHT22;24054;50.128;19.730;2023-02-28T17:58:00;23.00;44.10
38263;DHT22;24054;50.128;19.730;2023-02-28T18:00:29;23.00;42.60
38263;DHT22;24054;50.128;19.730;2023-02-28T18:02:56;23.40;43.20
38263;DHT22;24054;50.128;19.730;2023-02-28T18:05:24;23.10;41.60
38263;DHT22;24054;50.128;19.730;2023-02-28T18:07:52;23.10;41.50
38263;DHT22;24054;50.128;19.730;2023-02-28T18:10:20;23.00;41.50
38263;DHT22;24054;50.128;19.730;2023-02-28T18:12:48;23.00;41.50
38263;DHT22;24054;50.128;19.730;2023-02-28T18:15:16;23.00;41.50
38263;DHT22;24054;50.128;19.730;2023-02-28T18:17:45;23.00;41.60
38263;DHT22;24054;50.128;19.730;2023-02-28T18:20:13;22.90;41.50
38263;DHT22;24054;50.128;19.730;2023-02-28T18:22:42;22.90;41.50
38263;DHT22;24054;50.128;19.730;2023-02-28T18:25:10;22.90;41.50
38263;DHT22;24054;50.128;19.730;2023-02-28T18:27:41;22.80;41.40
38263;DHT22;24054;50.128;19.730;2023-02-28T18:30:19;22.80;42.10
38263;DHT22;24054;50.128;19.730;2023-02-28T18:32:46;22.80;41.50
38263;DHT22;24054;50.128;19.730;2023-02-28T18:35:14;22.80;41.60
38263;DHT22;24054;50.128;19.730;2023-02-28T18:37:42;22.70;41.60
38263;DHT22;24054;50.128;19.730;2023-02-28T18:40:11;22.70;41.30
38263;DHT22;24054;50.128;19.730;2023-02-28T18:42:40;22.70;41.40
38263;DHT22;24054;50.128;19.730;2023-02-28T18:45:08;22.60;40.90
38263;DHT22;24054;50.128;19.730;2023-02-28T18:47:36;22.60;41.30
38263;DHT22;24054;50.128;19.730;2023-02-28T18:50:06;22.70;40.90
38263;DHT22;24054;50.128;19.730;2023-02-28T18:52:34;23.00;45.90
38263;DHT22;24054;50.128;19.730;2023-02-28T18:55:03;21.90;56.90
38263;DHT22;24054;50.128;19.730;2023-02-28T18:59:57;22.70;42.50
38263;DHT22;24054;50.128;19.730;2023-02-28T19:04:52;22.50;50.40
38263;DHT22;24054;50.128;19.730;2023-02-28T19:07:19;22.50;40.70
38263;DHT22;24054;50.128;19.730;2023-02-28T19:09:46;22.40;40.70
38263;DHT22;24054;50.128;19.730;2023-02-28T19:12:15;22.50;41.10
38263;DHT22;24054;50.128;19.730;2023-02-28T19:14:45;24.20;48.00
38263;DHT22;24054;50.128;19.730;2023-02-28T19:17:12;22.10;46.80
38263;DHT22;24054;50.128;19.730;2023-02-28T19:19:40;22.30;40.80
38263;DHT22;24054;50.128;19.730;2023-02-28T19:22:08;22.30;40.60
38263;DHT22;24054;50.128;19.730;2023-02-28T19:24:35;22.30;40.90
38263;DHT22;24054;50.128;19.730;2023-02-28T19:27:04;22.30;40.80
38263;DHT22;24054;50.128;19.730;2023-02-28T19:29:32;22.20;40.40
38263;DHT22;24054;50.128;19.730;2023-02-28T19:32:00;22.20;40.80
38263;DHT22;24054;50.128;19.730;2023-02-28T19:34:28;22.20;40.70
38263;DHT22;24054;50.128;19.730;2023-02-28T19:36:55;22.20;53.60
38263;DHT22;24054;50.128;19.730;2023-02-28T19:39:22;22.30;40.60
38263;DHT22;24054;50.128;19.730;2023-02-28T19:41:52;21.90;44.90
38263;DHT22;24054;50.128;19.730;2023-02-28T19:44:19;22.20;42.60
38263;DHT22;24054;50.128;19.730;2023-02-28T19:46:48;22.00;49.50
38263;DHT22;24054;50.128;19.730;2023-02-28T19:49:15;21.80;63.80
38263;DHT22;24054;50.128;19.730;2023-02-28T19:51:43;22.10;40.10
38263;DHT22;24054;50.128;19.730;2023-02-28T19:54:10;22.10;40.60
38263;DHT22;24054;50.128;19.730;2023-02-28T19:56:37;22.10;40.80
38263;DHT22;24054;50.128;19.730;2023-02-28T20:01:31;22.00;50.60
38263;DHT22;24054;50.128;19.730;2023-02-28T20:03:59;21.90;48.80
38263;DHT22;24054;50.128;19.730;2023-02-28T20:06:30;21.90;52.60
38263;DHT22;24054;50.128;19.730;2023-02-28T20:08:57;22.10;42.20
38263;DHT22;24054;50.128;19.730;2023-02-28T20:11:24;21.90;41.70
38263;DHT22;24054;50.128;19.730;2023-02-28T20:13:52;22.60;50.20
38263;DHT22;24054;50.128;19.730;2023-02-28T20:16:19;22.00;44.00
38263;DHT22;24054;50.128;19.730;2023-02-28T20:18:49;22.00;42.40
38263;DHT22;24054;50.128;19.730;2023-02-28T20:21:18;22.20;48.30
38263;DHT22;24054;50.128;19.730;2023-02-28T20:23:45;22.00;42.00
38263;DHT22;24054;50.128;19.730;2023-02-28T20:26:14;21.90;45.20
38263;DHT22;24054;50.128;19.730;2023-02-28T20:28:44;21.60;68.20
38263;DHT22;24054;50.128;19.730;2023-02-28T20:31:13;21.90;40.40
38263;DHT22;24054;50.128;19.730;2023-02-28T20:33:40;21.80;60.80
38263;DHT22;24054;50.128;19.730;2023-02-28T20:36:08;21.50;66.10
38263;DHT22;24054;50.128;19.730;2023-02-28T20:38:38;21.80;40.20
38263;DHT22;24054;50.128;19.730;2023-02-28T20:43:33;21.70;62.30
38263;DHT22;24054;50.128;19.730;2023-02-28T20:46:01;21.30;58.60
38263;DHT22;24054;50.128;19.730;2023-02-28T20:48:28;21.50;57.00
38263;DHT22;24054;50.128;19.730;2023-02-28T20:50:57;21.50;59.00
38263;DHT22;24054;50.128;19.730;2023-02-28T20:53:27;21.80;61.30
38263;DHT22;24054;50.128;19.730;2023-02-28T20:55:57;21.60;54.10
38263;DHT22;24054;50.128;19.730;2023-02-28T20:58:27;21.60;41.30
38263;DHT22;24054;50.128;19.730;2023-02-28T21:00:59;21.60;42.20
38263;DHT22;24054;50.128;19.730;2023-02-28T21:03:26;21.60;42.70
38263;DHT22;24054;50.128;19.730;2023-02-28T21:05:58;21.60;42.70
38263;DHT22;24054;50.128;19.730;2023-02-28T21:08:27;21.70;42.90
38263;DHT22;24054;50.128;19.730;2023-02-28T21:10:56;21.70;43.10
38263;DHT22;24054;50.128;19.730;2023-02-28T21:13:23;21.80;43.40
38263;DHT22;24054;50.128;19.730;2023-02-28T21:15:51;21.80;43.60
38263;DHT22;24054;50.128;19.730;2023-02-28T21:18:18;21.90;43.80
38263;DHT22;24054;50.128;19.730;2023-02-28T21:20:45;21.90;43.70
38263;DHT22;24054;50.128;19.730;2023-02-28T21:23:13;22.00;44.10
38263;DHT22;24054;50.128;19.730;2023-02-28T21:25:40;22.10;44.30
38263;DHT22;24054;50.128;19.730;2023-02-28T21:28:09;22.10;44.20
38263;DHT22;24054;50.128;19.730;2023-02-28T21:30:36;22.20;44.40
38263;DHT22;24054;50.128;19.730;2023-02-28T21:33:06;22.20;44.60
38263;DHT22;24054;50.128;19.730;2023-02-28T21:35:33;22.20;44.80
38263;DHT22;24054;50.128;19.730;2023-02-28T21:38:00;22.30;44.90
38263;DHT22;24054;50.128;19.730;2023-02-28T21:40:27;22.30;44.90
38263;DHT22;24054;50.128;19.730;2023-02-28T21:42:54;22.40;45.10
38263;DHT22;24054;50.128;19.730;2023-02-28T21:45:23;22.40;44.90
38263;DHT22;24054;50.128;19.730;2023-02-28T21:47:50;22.50;44.90
38263;DHT22;24054;50.128;19.730;2023-02-28T21:50:17;22.50;44.80
38263;DHT22;24054;50.128;19.730;2023-02-28T21:52:47;22.50;44.90
38263;DHT22;24054;50.128;19.730;2023-02-28T21:55:14;22.60;44.90
38263;DHT22;24054;50.128;19.730;2023-02-28T21:57:41;22.60;44.80
38263;DHT22;24054;50.128;19.730;2023-02-28T22:00:09;22.60;44.70
38263;DHT22;24054;50.128;19.730;2023-02-28T22:02:38;22.60;44.70
38263;DHT22;24054;50.128;19.730;2023-02-28T22:05:05;22.60;44.70
38263;DHT22;24054;50.128;19.730;2023-02-28T22:07:32;22.60;44.70
38263;DHT22;24054;50.128;19.730;2023-02-28T22:09:59;22.60;44.70
38263;DHT22;24054;50.128;19.730;2023-02-28T22:12:28;22.60;44.70
38263;DHT22;24054;50.128;19.730;2023-02-28T22:14:56;22.60;44.50
38263;DHT22;24054;50.128;19.730;2023-02-28T22:17:23;22.50;44.30
38263;DHT22;24054;50.128;19.730;2023-02-28T22:19:54;22.50;44.30
38263;DHT22;24054;50.128;19.730;2023-02-28T22:22:21;22.50;44.20
38263;DHT22;24054;50.128;19.730;2023-02-28T22:24:48;22.50;44.20
38263;DHT22;24054;50.128;19.730;2023-02-28T22:27:15;22.40;44.10
38263;DHT22;24054;50.128;19.730;2023-02-28T22:29:42;22.40;44.10
38263;DHT22;24054;50.128;19.730;2023-02-28T22:32:09;22.40;44.00
38263;DHT22;24054;50.128;19.730;2023-02-28T22:34:36;22.40;44.00
38263;DHT22;24054;50.128;19.730;2023-02-28T22:37:07;22.40;44.10
38263;DHT22;24054;50.128;19.730;2023-02-28T22:39:34;22.30;44.00
38263;DHT22;24054;50.128;19.730;2023-02-28T22:42:01;22.30;44.60
38263;DHT22;24054;50.128;19.730;2023-02-28T22:44:28;22.30;43.90
38263;DHT22;24054;50.128;19.730;2023-02-28T22:46:55;22.20;43.80
38263;DHT22;24054;50.128;19.730;2023-02-28T22:49:22;22.20;43.70
38263;DHT22;24054;50.128;19.730;2023-02-28T22:51:49;22.20;44.00
38263;DHT22;24054;50.128;19.730;2023-02-28T22:54:18;22.10;43.70
38263;DHT22;24054;50.128;19.730;2023-02-28T22:56:45;22.10;43.60
38263;DHT22;24054;50.128;19.730;2023-02-28T22:59:13;22.10;43.60
38263;DHT22;24054;50.128;19.730;2023-02-28T23:01:41;22.10;43.50
38263;DHT22;24054;50.128;19.730;2023-02-28T23:04:09;22.10;43.50
38263;DHT22;24054;50.128;19.730;2023-02-28T23:06:39;22.00;43.50
38263;DHT22;24054;50.128;19.730;2023-02-28T23:09:10;22.00;43.40
38263;DHT22;24054;50.128;19.730;2023-02-28T23:11:44;22.00;43.30
38263;DHT22;24054;50.128;19.730;2023-02-28T23:14:12;21.90;43.20
38263;DHT22;24054;50.128;19.730;2023-02-28T23:16:41;21.90;43.20
38263;DHT22;24054;50.128;19.730;2023-02-28T23:19:10;21.90;43.20
38263;DHT22;24054;50.128;19.730;2023-02-28T23:21:38;21.90;43.20
38263;DHT22;24054;50.128;19.730;2023-02-28T23:24:07;21.80;43.10
38263;DHT22;24054;50.128;19.730;2023-02-28T23:26:35;21.80;43.10
38263;DHT22;24054;50.128;19.730;2023-02-28T23:29:05;21.80;43.00
38263;DHT22;24054;50.128;19.730;2023-02-28T23:31:32;21.80;43.00
38263;DHT22;24054;50.128;19.730;2023-02-28T23:34:00;21.70;42.90
38263;DHT22;24054;50.128;19.730;2023-02-28T23:36:27;21.70;42.80
38263;DHT22;24054;50.128;19.730;2023-02-28T23:38:54;21.70;42.80
38263;DHT22;24054;50.128;19.730;2023-02-28T23:41:22;21.70;42.80
38263;DHT22;24054;50.128;19.730;2023-02-28T23:43:51;21.60;42.80
38263;DHT22;24054;50.128;19.730;2023-02-28T23:46:20;21.60;42.80
38263;DHT22;24054;50.128;19.730;2023-02-28T23:48:48;22.00;43.00
38263;DHT22;24054;50.128;19.730;2023-02-28T23:51:17;21.60;42.70
38263;DHT22;24054;50.128;19.730;2023-02-28T23:53:48;21.50;42.60
38263;DHT22;24054;50.128;19.730;2023-02-28T23:56:17;21.50;42.60
38263;DHT22;24054;50.128;19.730;2023-02-28T23:58:46;21.50;43.20
